Aviation Digital Data Service (ADDS)

Output produced by METARs form (2146 UTC 16 February 2019)
found at http://www.aviationweather.gov/metar/data/
 
Forecast for: HELX (LUXOR (CIV/MIL) , EG)
Text: TAF HELX 161700Z 1618/1724 28008KT CAVOK
Forecast period: 1800 UTC 16 February 2019 to 0000 UTC 18 February 2019
Forecast type: FROM: standard forecast or significant change
Winds: from the W (280 degrees) at 9 MPH (8 knots; 4.1 m/s)
Visibility: 6 or more miles 10+ km)
Ceiling: unknown
Clouds: missing
Weather: NSW  (no significant weather)
Text: TEMPO 1704/1708 VRB03KT 4000 HZ NSC
Forecast period: 0400 to 0800 UTC 17 February 2019
Forecast type: TEMPORARY: The following changes expected for less than half the time period
Winds: variable direction winds at 3 MPH (3 knots; 1.5 m/s)
Visibility: 2.49 miles (4.01 km)
Ceiling: unknown
Clouds: missing
Weather: HZ  (haze)